Airfield :
LOGIN :

Register | Disclaimer

   EN    FR    IT 

 










Legend :    VFR   Marginal VFR   IFR   Intensive IFR   Very Intensive IFR
Visi :
Ceiling :
>= 8 km
>= 3000ft
5 to 8 km
1000 to 3000 ft
1500m to 5 km
500 to 1000 ft
800 to 1500m
200 to 500 ft
< 800m
< 200 ft
Symbols :   Thunderstorms  Fog  Heavy snow  Heavy precipitations  Wind > 20 kt
SIGMETs :     Misc.  Thunderstorms  Icing  Turbulence  Mountain Waves  Volcanic Ashes







- Airport Elevation : 2425 ft


ETHA - Altenstadt Army

CURRENT METAR :
  • 191320Z 05009KT 8000 FEW012 SCT300 14/10 Q1021 BLU+

EXPIRED METARs :
  • 191220Z 08009KT 8000 FEW010 SCT300 14/10 Q1022 BLU+
  • 191120Z 07008KT 6000 FEW005 13/09 Q1022 WHT
  • 191048Z 06007KT 5000 BR SCT003 11/10 Q1022 WHT

TAF AMD TAF ETHA
Valid from the 19 at 08:00 until the 19 at 17:00 UTC


190937Z 1908/1917 VRB03KT 0100 FG VV000
BECMG 1908/1910 05005KT 3000 BR SCT003
BECMG 1910/1911 07008G18KT 9999 NSW FEW020 CANCEL 1020
No reported NOTAMs for that airfield.



MET'MAP, your aeronautical weather chart ! - Copyright ORBIFLY December 2007 - Disclaimer

ORBIFLY MET'MAP TEAM :

Programming & Development : Alexandra Zaïnal
Concept & Development : Baudouin d'Aumeries
Co-Development & Prog : Marc-Olivier Méhu
Technical & hardware support : Manuel Goepfert

Contact : metmap@orbifly.com




SOURCES & CREDITS :

   NOAA